Portada
METAR-TAF:

METAR-TAF

Aeropuertos :

Jerez de la Frontera, España

Aeropuerto de Jerez

latitud: 36-45N, longitud: 006-04W, altitud: 27 m

Observación

El informe se hizo hace 11 minutos, a las 16:30 UTC
Viento 10 kt del oeste-suroeste, variando entre sur-suroeste y oeste
Temperatura 25°C
Humedad 50%
Presión 1016 hPa
Visibilidad 10 km o más
Escasas nubes a una altura de 4400 ft

METAR: LEJR 281630Z 25010KT 210V280 9999 FEW044 25/14 Q1016

Hora: 18:41 (16:41 UTC)

Pronóstico

El informe se hizo hace 5 horas y 41 minutos, a las 11:00 UTC
Pronóstico válido del 28 a las 12 UTC al 29 a las 12 UTC
Viento 9 kt del oeste-suroeste
Visibilidad 10 km o más
Nubes dispersas a una altura de 2000 ft
Temporalmente
del 29 a las 01 UTC al 29 a las 12 UTC
Visibilidad: 4000 m
Cielo nuboso a una altura de 1000 ft
lluvia, neblina

TAF: LEJR 281100Z 2812/2912 24009KT 9999 SCT020 TX23/2816Z TN14/2904Z TEMPO 2901/2912 4000 RA BR BKN010

Observaciones y pronósticos meteorológicos de más de 4000 aeropuertos (mensajes METAR y TAF).

Los puntos amarillos y rojos representan las estaciones disponibles.

Ponga el ratón en el punto deseado para ver el nombre de la estación.

Haga clic para ver las observaciones y los pronósticos meteorológicos.

Para cambiar el mapa : haga clic en los botones verdes con una cruz de color negro para hacer un zoom, en el botón verde con un guión para alejar o en las flechas verdes para mapas adyacentes.


METAR-TAF: